createdAt,value
2022-09-27T00:00:45.594Z,0.00
2022-09-27T00:01:45.615Z,0.00
2022-09-27T00:02:45.576Z,0.00
2022-09-27T00:03:45.483Z,0.00
2022-09-27T00:04:45.428Z,0.00
2022-09-27T00:05:45.390Z,0.00
2022-09-27T00:06:45.348Z,0.00
2022-09-27T00:07:45.305Z,0.00
2022-09-27T00:08:45.265Z,0.00
2022-09-27T00:09:45.241Z,0.00
2022-09-27T00:10:45.183Z,0.00
2022-09-27T00:11:45.144Z,0.00
2022-09-27T00:12:45.951Z,0.00
2022-09-27T00:13:45.846Z,0.00
2022-09-27T00:14:45.027Z,0.00
2022-09-27T00:15:45.908Z,0.00
2022-09-27T00:16:45.744Z,0.00
2022-09-27T00:17:45.911Z,0.00
2022-09-27T00:18:44.865Z,0.00
2022-09-27T00:19:45.736Z,0.00
2022-09-27T00:20:45.766Z,0.00
2022-09-27T00:21:45.627Z,0.00
2022-09-27T00:22:45.421Z,0.00
2022-09-27T00:23:45.297Z,0.00
2022-09-27T00:24:45.361Z,0.00
2022-09-27T00:25:45.526Z,0.00
2022-09-27T00:26:45.346Z,0.00
2022-09-27T00:27:45.542Z,0.00
2022-09-27T00:28:45.218Z,0.00
2022-09-27T00:29:45.147Z,0.00
2022-09-27T00:30:44.493Z,0.00
2022-09-27T00:31:44.329Z,0.00
2022-09-27T00:32:45.212Z,0.00
2022-09-27T00:33:44.255Z,0.00
2022-09-27T00:34:44.876Z,0.00
2022-09-27T00:35:45.026Z,0.00
2022-09-27T00:36:44.607Z,0.00
2022-09-27T00:37:45.061Z,0.00
2022-09-27T00:38:44.048Z,0.00
2022-09-27T00:39:44.650Z,0.00
2022-09-27T00:40:44.013Z,0.00
2022-09-27T00:41:43.925Z,0.00
2022-09-27T00:42:43.893Z,0.00
2022-09-27T00:43:43.840Z,0.00
2022-09-27T00:44:43.798Z,0.00
2022-09-27T00:45:43.768Z,0.00
2022-09-27T00:46:44.648Z,0.00
2022-09-27T00:47:43.741Z,0.00
2022-09-27T00:48:43.635Z,0.00
2022-09-27T00:49:44.530Z,0.00
2022-09-27T00:50:43.569Z,0.00
2022-09-27T00:51:43.517Z,0.00
2022-09-27T00:52:44.063Z,0.00
2022-09-27T00:53:44.064Z,0.00
2022-09-27T00:54:43.391Z,0.00
2022-09-27T00:55:43.353Z,0.00
2022-09-27T00:56:43.326Z,0.00
2022-09-27T00:57:43.401Z,0.00
2022-09-27T00:58:43.263Z,0.00
2022-09-27T00:59:43.189Z,0.00
2022-09-27T01:00:43.164Z,0.00
2022-09-27T01:01:43.142Z,0.00
2022-09-27T01:02:43.176Z,0.00
2022-09-27T01:03:44.027Z,0.00
2022-09-27T01:04:43.011Z,0.00
2022-09-27T01:05:42.943Z,0.00
2022-09-27T01:06:43.123Z,0.00
2022-09-27T01:07:42.863Z,0.00
2022-09-27T01:08:42.821Z,0.00
2022-09-27T01:09:42.781Z,0.00
2022-09-27T01:10:42.742Z,0.00
2022-09-27T01:11:42.733Z,0.00
2022-09-27T01:12:42.671Z,0.00
2022-09-27T01:13:42.617Z,0.00
2022-09-27T01:14:42.586Z,0.00
2022-09-27T01:15:42.584Z,0.00
2022-09-27T01:16:42.496Z,0.00
2022-09-27T01:17:42.460Z,0.00
2022-09-27T01:18:42.417Z,0.00
2022-09-27T01:19:42.372Z,0.00
2022-09-27T01:20:42.350Z,0.00
2022-09-27T01:21:42.309Z,0.00
2022-09-27T01:22:42.251Z,0.00
2022-09-27T01:23:42.216Z,0.00
2022-09-27T01:24:42.169Z,0.00
2022-09-27T01:25:42.137Z,0.00
2022-09-27T01:26:42.089Z,0.00
2022-09-27T01:27:42.060Z,0.00
2022-09-27T01:28:42.009Z,0.00
2022-09-27T01:29:41.966Z,0.00
2022-09-27T01:30:41.997Z,0.00
2022-09-27T01:31:41.887Z,0.00
2022-09-27T01:32:41.845Z,0.00
2022-09-27T01:33:41.815Z,0.00
2022-09-27T01:34:41.770Z,0.00
2022-09-27T01:35:41.720Z,0.00
2022-09-27T01:36:41.683Z,0.00
2022-09-27T01:37:41.642Z,0.00
2022-09-27T01:38:41.609Z,0.00
2022-09-27T01:39:41.573Z,0.00
2022-09-27T01:40:41.601Z,0.00
2022-09-27T01:41:41.477Z,0.00
2022-09-27T01:42:41.442Z,0.00
2022-09-27T01:43:41.392Z,0.00
2022-09-27T01:44:41.354Z,0.00
2022-09-27T01:45:41.322Z,0.00
2022-09-27T01:46:41.315Z,0.00
2022-09-27T01:47:41.232Z,0.00
2022-09-27T01:48:41.796Z,0.00
2022-09-27T01:49:41.906Z,0.00
2022-09-27T01:50:41.800Z,0.00
2022-09-27T01:51:41.067Z,0.00
2022-09-27T01:52:41.029Z,0.00
2022-09-27T01:53:40.988Z,0.00
2022-09-27T01:54:40.946Z,0.00
2022-09-27T01:55:40.917Z,0.00
2022-09-27T01:56:40.863Z,0.00
2022-09-27T01:57:40.829Z,0.00
2022-09-27T01:58:40.784Z,0.00
2022-09-27T01:59:40.744Z,0.00
2022-09-27T02:00:40.698Z,0.00
2022-09-27T02:01:40.715Z,0.00
2022-09-27T02:02:40.659Z,0.00
2022-09-27T02:03:40.578Z,0.00
2022-09-27T02:04:40.539Z,0.00
2022-09-27T02:05:40.492Z,0.00
2022-09-27T02:06:40.471Z,0.00
2022-09-27T02:07:40.416Z,0.00
2022-09-27T02:08:40.374Z,0.00
2022-09-27T02:09:40.332Z,0.00
2022-09-27T02:10:40.292Z,0.00
2022-09-27T02:11:40.253Z,0.00
2022-09-27T02:12:40.218Z,0.00
2022-09-27T02:13:40.172Z,0.00
2022-09-27T02:14:40.131Z,0.00
2022-09-27T02:15:40.139Z,0.00
2022-09-27T02:16:40.047Z,0.00
2022-09-27T02:17:40.018Z,0.00
2022-09-27T02:18:39.969Z,0.00
2022-09-27T02:19:39.947Z,0.00
2022-09-27T02:20:39.888Z,0.00
2022-09-27T02:21:39.838Z,0.00
2022-09-27T02:22:39.804Z,0.00
2022-09-27T02:23:39.774Z,0.00
2022-09-27T02:24:39.723Z,0.00
2022-09-27T02:25:39.679Z,0.00
2022-09-27T02:26:39.641Z,0.00
2022-09-27T02:27:39.596Z,0.00
2022-09-27T02:28:39.570Z,0.00
2022-09-27T02:29:39.518Z,0.00
2022-09-27T02:30:39.550Z,0.00
2022-09-27T02:31:39.433Z,0.00
2022-09-27T02:32:39.394Z,0.00
2022-09-27T02:33:39.351Z,0.00
2022-09-27T02:34:39.351Z,0.00
2022-09-27T02:35:39.271Z,0.00
2022-09-27T02:36:39.231Z,0.00
2022-09-27T02:37:39.186Z,0.00
2022-09-27T02:38:39.149Z,0.00
2022-09-27T02:39:39.105Z,0.00
2022-09-27T02:40:39.151Z,0.00
2022-09-27T02:41:39.026Z,0.00
2022-09-27T02:42:38.986Z,0.00
2022-09-27T02:43:38.954Z,0.00
2022-09-27T02:44:38.903Z,0.00
2022-09-27T02:45:38.879Z,0.00
2022-09-27T02:46:38.833Z,0.00
2022-09-27T02:47:38.780Z,0.00
2022-09-27T02:48:38.738Z,0.00
2022-09-27T02:49:38.698Z,0.00
2022-09-27T02:50:38.661Z,0.00
2022-09-27T02:51:38.616Z,0.00
2022-09-27T02:52:38.592Z,0.00
2022-09-27T02:53:38.563Z,0.00
2022-09-27T02:54:38.497Z,0.00
2022-09-27T02:55:38.454Z,0.00
2022-09-27T02:56:38.414Z,0.00
2022-09-27T02:57:38.371Z,0.00
2022-09-27T02:58:38.344Z,0.00
2022-09-27T02:59:38.289Z,0.00
2022-09-27T03:00:38.250Z,0.00
2022-09-27T03:01:38.390Z,0.00
2022-09-27T03:02:38.231Z,0.00
2022-09-27T03:03:38.128Z,0.00
2022-09-27T03:04:38.109Z,0.00
2022-09-27T03:05:38.045Z,0.00
2022-09-27T03:06:38.008Z,0.00
2022-09-27T03:07:37.964Z,0.00
2022-09-27T03:08:37.928Z,0.00
2022-09-27T03:09:37.886Z,0.00
2022-09-27T03:10:37.855Z,0.00
2022-09-27T03:11:37.802Z,0.00
2022-09-27T03:12:37.761Z,0.00
2022-09-27T03:13:55.517Z,0.00
2022-09-27T03:14:37.681Z,0.00
2022-09-27T03:15:37.654Z,0.00
2022-09-27T03:16:37.673Z,0.00
2022-09-27T03:17:37.553Z,0.00
2022-09-27T03:18:37.515Z,0.00
2022-09-27T03:19:37.472Z,0.00
2022-09-27T03:20:37.442Z,0.00
2022-09-27T03:21:37.398Z,0.00
2022-09-27T03:22:37.355Z,0.00
2022-09-27T03:23:37.310Z,0.00
2022-09-27T03:24:37.269Z,0.00
2022-09-27T03:25:37.238Z,0.00
2022-09-27T03:26:37.190Z,0.00
2022-09-27T03:27:37.146Z,0.00
2022-09-27T03:28:37.117Z,0.00
2022-09-27T03:29:37.063Z,0.00
2022-09-27T03:30:37.071Z,0.00
2022-09-27T03:31:36.982Z,0.00
2022-09-27T03:32:40.819Z,0.00
2022-09-27T03:33:36.905Z,0.00
2022-09-27T03:34:36.873Z,0.00
2022-09-27T03:35:36.819Z,0.00
2022-09-27T03:36:36.781Z,0.00
2022-09-27T03:37:36.737Z,0.00
2022-09-27T03:38:36.709Z,0.00
2022-09-27T03:39:36.654Z,0.00
2022-09-27T03:40:36.685Z,0.00
2022-09-27T03:41:36.577Z,0.00
2022-09-27T03:42:36.537Z,0.00
2022-09-27T03:43:36.493Z,0.00
2022-09-27T03:44:36.463Z,0.00
2022-09-27T03:45:36.411Z,0.00
2022-09-27T03:46:36.492Z,0.00
2022-09-27T03:47:36.878Z,0.00
2022-09-27T03:48:36.287Z,0.00
2022-09-27T03:49:36.245Z,0.00
2022-09-27T03:50:36.223Z,0.00
2022-09-27T03:51:36.167Z,0.00
2022-09-27T03:52:36.124Z,0.00
2022-09-27T03:53:36.095Z,0.00
2022-09-27T03:54:36.041Z,0.00
2022-09-27T03:55:36.000Z,0.00
2022-09-27T03:56:35.959Z,0.00
2022-09-27T03:57:35.922Z,0.00
2022-09-27T03:58:35.879Z,0.00
2022-09-27T03:59:35.844Z,0.00
2022-09-27T04:00:35.806Z,0.00
2022-09-27T04:01:35.878Z,0.00
2022-09-27T04:02:35.759Z,0.00
2022-09-27T04:03:35.670Z,0.00
2022-09-27T04:04:35.637Z,0.00
2022-09-27T04:05:35.589Z,0.00
2022-09-27T04:06:35.566Z,0.00
2022-09-27T04:07:35.514Z,0.00
2022-09-27T04:08:35.465Z,0.00
2022-09-27T04:09:35.425Z,0.00
2022-09-27T04:10:35.387Z,0.00
2022-09-27T04:11:35.343Z,0.00
2022-09-27T04:12:35.316Z,0.00
2022-09-27T04:13:35.290Z,0.00
2022-09-27T04:14:35.229Z,0.00
2022-09-27T04:15:35.181Z,0.00
2022-09-27T04:16:35.194Z,0.00
2022-09-27T04:17:35.095Z,0.00
2022-09-27T04:18:35.059Z,0.00
2022-09-27T04:19:35.033Z,0.00
2022-09-27T04:20:35.164Z,0.00
2022-09-27T04:21:34.935Z,0.00
2022-09-27T04:22:35.554Z,0.00
2022-09-27T04:23:34.849Z,0.00
2022-09-27T04:24:34.816Z,0.00
2022-09-27T04:25:35.639Z,0.00
2022-09-27T04:26:34.728Z,0.00
2022-09-27T04:27:34.685Z,0.00
2022-09-27T04:28:34.646Z,0.00
2022-09-27T04:29:35.594Z,0.00
2022-09-27T04:30:35.175Z,0.00
2022-09-27T04:31:34.557Z,0.00
2022-09-27T04:32:35.131Z,0.00
2022-09-27T04:33:34.442Z,0.00
2022-09-27T04:34:34.397Z,0.00
2022-09-27T04:35:35.060Z,0.00
2022-09-27T04:36:34.313Z,0.00
2022-09-27T04:37:34.289Z,0.00
2022-09-27T04:38:34.239Z,0.00
2022-09-27T04:39:34.194Z,0.00
2022-09-27T04:40:34.228Z,0.00
2022-09-27T04:41:34.118Z,0.00
2022-09-27T04:42:34.090Z,0.00
2022-09-27T04:43:34.032Z,0.00
2022-09-27T04:44:33.998Z,0.00
2022-09-27T04:45:33.959Z,0.00
2022-09-27T04:46:33.963Z,0.00
2022-09-27T04:47:33.881Z,0.00
2022-09-27T04:48:33.824Z,0.00
2022-09-27T04:49:33.779Z,0.00
2022-09-27T04:50:35.946Z,0.00
2022-09-27T04:51:33.698Z,0.00
2022-09-27T04:52:33.660Z,0.00
2022-09-27T04:53:33.632Z,0.00
2022-09-27T04:54:33.577Z,0.00
2022-09-27T04:55:33.586Z,0.00
2022-09-27T04:56:33.493Z,4.00
2022-09-27T04:57:33.451Z,4.00
2022-09-27T04:58:33.414Z,4.00
2022-09-27T04:59:33.369Z,8.00
2022-09-27T05:00:33.364Z,8.00
2022-09-27T05:01:33.366Z,4.00
2022-09-27T05:02:33.289Z,8.00
2022-09-27T05:03:33.207Z,8.00
2022-09-27T05:04:33.166Z,12.00
2022-09-27T05:05:33.122Z,16.00
2022-09-27T05:06:33.099Z,16.00
2022-09-27T05:07:33.038Z,20.00
2022-09-27T05:08:33.005Z,24.00
2022-09-27T05:09:32.966Z,32.00
2022-09-27T05:10:32.917Z,36.00
2022-09-27T05:11:32.872Z,40.00
2022-09-27T05:12:32.848Z,40.00
2022-09-27T05:13:32.789Z,44.00
2022-09-27T05:14:32.754Z,48.00
2022-09-27T05:15:32.709Z,52.00
2022-09-27T05:16:34.026Z,60.00
2022-09-27T05:17:32.626Z,72.00
2022-09-27T05:18:32.599Z,80.00
2022-09-27T05:19:32.553Z,88.00
2022-09-27T05:20:32.509Z,104.00
2022-09-27T05:21:32.472Z,116.00
2022-09-27T05:22:32.438Z,116.00
2022-09-27T05:23:32.375Z,92.00
2022-09-27T05:24:32.341Z,76.00
2022-09-27T05:25:32.298Z,76.00
2022-09-27T05:26:32.257Z,108.00
2022-09-27T05:27:32.212Z,152.00
2022-09-27T05:28:32.187Z,184.00
2022-09-27T05:29:32.133Z,196.00
2022-09-27T05:30:32.132Z,228.00
2022-09-27T05:31:32.050Z,284.00
2022-09-27T05:32:32.008Z,332.00
2022-09-27T05:33:31.969Z,380.00
2022-09-27T05:34:31.940Z,448.00
2022-09-27T05:35:31.900Z,504.00
2022-09-27T05:36:31.855Z,544.00
2022-09-27T05:37:31.806Z,580.00
2022-09-27T05:38:32.620Z,616.00
2022-09-27T05:39:31.717Z,672.00
2022-09-27T05:40:43.357Z,664.00
2022-09-27T05:41:31.864Z,676.00
2022-09-27T05:42:31.610Z,708.00
2022-09-27T05:43:31.572Z,712.00
2022-09-27T05:44:31.549Z,776.00
2022-09-27T05:45:31.474Z,804.00
2022-09-27T05:46:31.739Z,840.00
2022-09-27T05:47:31.388Z,908.00
2022-09-27T05:48:32.078Z,960.00
2022-09-27T05:49:31.308Z,1076.00
2022-09-27T05:50:31.271Z,1176.00
2022-09-27T05:51:31.222Z,1204.00
2022-09-27T05:52:31.199Z,1328.00
2022-09-27T05:53:31.143Z,1352.00
2022-09-27T05:54:31.102Z,1532.00
2022-09-27T05:55:31.063Z,1604.00
2022-09-27T05:56:31.018Z,1716.00
2022-09-27T05:57:30.980Z,1828.00
2022-09-27T05:58:31.050Z,1884.00
2022-09-27T05:59:30.916Z,1948.00
2022-09-27T06:00:30.854Z,2076.00
2022-09-27T06:01:30.859Z,2228.00
2022-09-27T06:02:30.839Z,2256.00
2022-09-27T06:03:30.730Z,2180.00
2022-09-27T06:04:30.700Z,2268.00
2022-09-27T06:05:30.648Z,2456.00
2022-09-27T06:06:30.605Z,2544.00
2022-09-27T06:07:30.598Z,2556.00
2022-09-27T06:08:30.522Z,2564.00
2022-09-27T06:09:30.482Z,2664.00
2022-09-27T06:10:30.453Z,2640.00
2022-09-27T06:11:30.400Z,2632.00
2022-09-27T06:12:30.356Z,2680.00
2022-09-27T06:13:30.317Z,2732.00
2022-09-27T06:14:30.276Z,2776.00
2022-09-27T06:15:30.238Z,2828.00
2022-09-27T06:16:30.248Z,2820.00
2022-09-27T06:17:30.155Z,2680.00
2022-09-27T06:18:30.112Z,2404.00
2022-09-27T06:19:30.070Z,2044.00
2022-09-27T06:20:30.028Z,1808.00
2022-09-27T06:21:29.990Z,1828.00
2022-09-27T06:22:29.963Z,1808.00
2022-09-27T06:23:29.907Z,1800.00
2022-09-27T06:24:29.891Z,1892.00
2022-09-27T06:25:29.850Z,1884.00
2022-09-27T06:26:29.797Z,1808.00
2022-09-27T06:27:29.742Z,2012.00
2022-09-27T06:28:29.716Z,2196.00
2022-09-27T06:29:29.668Z,2100.00
2022-09-27T06:30:29.640Z,2052.00
2022-09-27T06:31:29.579Z,2072.00
2022-09-27T06:32:29.578Z,2200.00
2022-09-27T06:33:29.517Z,2364.00
2022-09-27T06:34:29.458Z,2604.00
2022-09-27T06:35:29.418Z,2872.00
2022-09-27T06:36:29.375Z,2928.00
2022-09-27T06:37:29.333Z,2804.00
2022-09-27T06:38:29.293Z,2728.00
2022-09-27T06:39:29.267Z,2776.00
2022-09-27T06:40:29.251Z,2928.00
2022-09-27T06:41:29.175Z,3188.00
2022-09-27T06:42:29.134Z,3396.00
2022-09-27T06:43:29.103Z,3404.00
2022-09-27T06:44:29.047Z,3548.00
2022-09-27T06:45:29.020Z,3844.00
2022-09-27T06:46:28.994Z,4108.00
2022-09-27T06:47:28.927Z,4068.00
2022-09-27T06:48:28.883Z,3884.00
2022-09-27T06:49:28.844Z,3888.00
2022-09-27T06:50:28.801Z,3832.00
2022-09-27T06:51:28.770Z,3492.00
2022-09-27T06:52:28.720Z,3652.00
2022-09-27T06:53:28.680Z,3604.00
2022-09-27T06:54:28.639Z,3776.00
2022-09-27T06:55:28.599Z,3652.00
2022-09-27T06:56:28.571Z,3696.00
2022-09-27T06:57:28.518Z,3480.00
2022-09-27T06:58:28.476Z,3572.00
2022-09-27T06:59:28.435Z,3300.00
2022-09-27T07:00:28.401Z,3260.00
2022-09-27T07:01:28.503Z,3416.00
2022-09-27T07:02:28.353Z,3220.00
2022-09-27T07:03:32.925Z,3064.00
2022-09-27T07:04:28.258Z,3068.00
2022-09-27T07:05:28.196Z,2996.00
2022-09-27T07:06:28.158Z,2840.00
2022-09-27T07:07:28.121Z,2896.00
2022-09-27T07:08:28.076Z,3052.00
2022-09-27T07:09:28.041Z,3172.00
2022-09-27T07:10:28.001Z,3180.00
2022-09-27T07:11:27.946Z,3192.00
2022-09-27T07:12:27.905Z,3264.00
2022-09-27T07:13:27.866Z,3144.00
2022-09-27T07:14:27.827Z,3564.00
2022-09-27T07:15:27.785Z,3520.00
2022-09-27T07:16:27.772Z,3220.00
2022-09-27T07:17:27.703Z,3476.00
2022-09-27T07:18:27.666Z,3128.00
2022-09-27T07:19:27.644Z,3360.00
2022-09-27T07:20:27.580Z,3324.00
2022-09-27T07:21:27.543Z,3128.00
2022-09-27T07:22:27.512Z,3332.00
2022-09-27T07:23:27.459Z,3308.00
2022-09-27T07:24:27.419Z,2996.00
2022-09-27T07:25:27.378Z,3292.00
2022-09-27T07:26:27.337Z,3796.00
2022-09-27T07:27:27.292Z,3536.00
2022-09-27T07:28:27.279Z,4056.00
2022-09-27T07:29:27.217Z,4120.00
2022-09-27T07:30:27.418Z,4164.00
2022-09-27T07:31:27.143Z,3632.00
2022-09-27T07:32:27.092Z,4308.00
2022-09-27T07:33:27.051Z,4908.00
2022-09-27T07:34:27.025Z,5132.00
2022-09-27T07:35:26.972Z,5120.00
2022-09-27T07:36:26.928Z,5320.00
2022-09-27T07:37:26.887Z,5592.00
2022-09-27T07:38:26.850Z,5600.00
2022-09-27T07:39:26.807Z,5568.00
2022-09-27T07:40:26.871Z,5672.00
2022-09-27T07:41:26.727Z,5896.00
2022-09-27T07:42:26.682Z,5880.00
2022-09-27T07:43:27.192Z,5744.00
2022-09-27T07:44:26.602Z,6292.00
2022-09-27T07:45:26.564Z,6732.00
2022-09-27T07:46:26.533Z,6816.00
2022-09-27T07:47:35.696Z,7068.00
2022-09-27T07:48:26.438Z,6976.00
2022-09-27T07:49:26.399Z,6996.00
2022-09-27T07:50:26.441Z,7176.00
2022-09-27T07:51:26.322Z,6488.00
2022-09-27T07:52:26.285Z,7512.00
2022-09-27T07:53:26.235Z,7576.00
2022-09-27T07:54:26.193Z,6168.00
2022-09-27T07:55:26.159Z,6228.00
2022-09-27T07:56:26.114Z,6512.00
2022-09-27T07:57:26.073Z,6976.00
2022-09-27T07:58:26.045Z,6680.00
2022-09-27T07:59:25.990Z,6360.00
2022-09-27T08:00:25.952Z,6444.00
2022-09-27T08:01:25.930Z,6820.00
2022-09-27T08:02:25.889Z,7140.00
2022-09-27T08:03:25.837Z,7564.00
2022-09-27T08:04:25.802Z,7972.00
2022-09-27T08:05:25.758Z,8984.00
2022-09-27T08:06:25.715Z,9700.00
2022-09-27T08:07:25.666Z,10768.00
2022-09-27T08:08:25.624Z,11568.00
2022-09-27T08:09:25.585Z,11756.00
2022-09-27T08:10:25.556Z,11512.00
2022-09-27T08:11:25.505Z,11256.00
2022-09-27T08:12:25.488Z,10272.00
2022-09-27T08:13:25.424Z,10028.00
2022-09-27T08:14:25.383Z,9260.00
2022-09-27T08:15:25.341Z,9144.00
2022-09-27T08:16:25.336Z,8860.00
2022-09-27T08:17:25.264Z,8992.00
2022-09-27T08:18:25.235Z,8828.00
2022-09-27T08:19:25.183Z,8700.00
2022-09-27T08:20:25.141Z,8224.00
2022-09-27T08:21:25.105Z,8588.00
2022-09-27T08:22:25.062Z,8684.00
2022-09-27T08:23:25.030Z,7764.00
2022-09-27T08:24:24.994Z,8572.00
2022-09-27T08:25:24.942Z,7784.00
2022-09-27T08:26:24.916Z,7468.00
2022-09-27T08:27:25.086Z,5472.00
2022-09-27T08:28:24.825Z,6648.00
2022-09-27T08:29:24.797Z,5744.00
2022-09-27T08:30:24.750Z,6464.00
2022-09-27T08:31:24.777Z,6736.00
2022-09-27T08:32:24.672Z,7376.00
2022-09-27T08:33:27.567Z,7180.00
2022-09-27T08:34:24.584Z,7476.00
2022-09-27T08:35:24.543Z,7904.00
2022-09-27T08:36:24.505Z,8020.00
2022-09-27T08:37:24.475Z,8488.00
2022-09-27T08:38:24.424Z,9296.00
2022-09-27T08:39:24.383Z,10108.00
2022-09-27T08:40:24.442Z,9032.00
2022-09-27T08:41:24.310Z,8492.00
2022-09-27T08:42:24.280Z,8448.00
2022-09-27T08:43:24.226Z,6736.00
2022-09-27T08:44:24.185Z,5848.00
2022-09-27T08:45:24.193Z,7604.00
2022-09-27T08:46:24.105Z,7600.00
2022-09-27T08:47:24.066Z,8068.00
2022-09-27T08:48:24.035Z,7980.00
2022-09-27T08:49:23.985Z,6836.00
2022-09-27T08:50:23.951Z,7008.00
2022-09-27T08:51:23.905Z,7268.00
2022-09-27T08:52:23.866Z,6740.00
2022-09-27T08:53:24.763Z,6176.00
2022-09-27T08:54:23.802Z,5972.00
2022-09-27T08:55:23.749Z,7640.00
2022-09-27T08:56:23.704Z,7112.00
2022-09-27T08:57:23.666Z,6736.00
2022-09-27T08:58:23.624Z,7816.00
2022-09-27T08:59:23.585Z,7804.00
2022-09-27T09:00:23.561Z,7656.00
2022-09-27T09:01:28.492Z,6676.00
2022-09-27T09:02:23.529Z,6676.00
2022-09-27T09:03:23.428Z,6616.00
2022-09-27T09:04:23.386Z,6212.00
2022-09-27T09:05:23.346Z,6552.00
2022-09-27T09:06:23.317Z,6500.00
2022-09-27T09:07:23.264Z,6820.00
2022-09-27T09:08:23.227Z,7060.00
2022-09-27T09:09:23.185Z,7280.00
2022-09-27T09:10:23.157Z,6672.00
2022-09-27T09:11:23.115Z,7428.00
2022-09-27T09:12:23.064Z,8080.00
2022-09-27T09:13:23.042Z,7988.00
2022-09-27T09:14:22.983Z,7852.00
2022-09-27T09:15:22.947Z,8256.00
2022-09-27T09:16:22.946Z,6484.00
2022-09-27T09:17:22.875Z,6296.00
2022-09-27T09:18:22.821Z,6924.00
2022-09-27T09:19:22.783Z,7468.00
2022-09-27T09:20:22.741Z,7572.00
2022-09-27T09:21:22.705Z,7144.00
2022-09-27T09:22:22.661Z,6916.00
2022-09-27T09:23:22.636Z,6816.00
2022-09-27T09:24:22.675Z,8368.00
2022-09-27T09:25:22.545Z,8352.00
2022-09-27T09:26:22.503Z,8912.00
2022-09-27T09:27:22.460Z,8344.00
2022-09-27T09:28:22.423Z,10968.00
2022-09-27T09:29:22.399Z,10796.00
2022-09-27T09:30:22.381Z,11324.00
2022-09-27T09:31:22.373Z,10200.00
2022-09-27T09:32:22.256Z,10440.00
2022-09-27T09:33:22.234Z,11608.00
2022-09-27T09:34:22.190Z,15140.00
2022-09-27T09:35:22.145Z,17280.00
2022-09-27T09:36:23.188Z,14044.00
2022-09-27T09:37:22.088Z,12960.00
2022-09-27T09:38:22.015Z,12648.00
2022-09-27T09:39:21.979Z,12584.00
2022-09-27T09:40:22.178Z,10800.00
2022-09-27T09:41:21.905Z,9552.00
2022-09-27T09:42:21.877Z,9252.00
2022-09-27T09:43:21.860Z,10504.00
2022-09-27T09:44:21.810Z,10900.00
2022-09-27T09:45:21.741Z,8944.00
2022-09-27T09:46:21.697Z,10996.00
2022-09-27T09:47:21.849Z,11564.00
2022-09-27T09:48:22.258Z,8880.00
2022-09-27T09:49:21.593Z,8984.00
2022-09-27T09:50:21.591Z,13476.00
2022-09-27T09:51:21.520Z,14252.00
2022-09-27T09:52:21.471Z,13780.00
2022-09-27T09:53:21.546Z,13720.00
2022-09-27T09:54:21.388Z,14012.00
2022-09-27T09:55:21.407Z,17184.00
2022-09-27T09:56:21.301Z,19488.00
2022-09-27T09:57:21.273Z,21184.00
2022-09-27T09:58:21.402Z,22176.00
2022-09-27T09:59:21.201Z,19616.00
2022-09-27T10:00:21.207Z,20288.00
2022-09-27T10:01:21.219Z,18592.00
2022-09-27T10:02:21.150Z,13196.00
2022-09-27T10:03:21.025Z,11496.00
2022-09-27T10:04:20.984Z,14288.00
2022-09-27T10:05:20.959Z,16188.00
2022-09-27T10:06:20.908Z,16356.00
2022-09-27T10:07:20.877Z,14668.00
2022-09-27T10:08:20.842Z,15444.00
2022-09-27T10:09:20.792Z,17504.00
2022-09-27T10:10:20.804Z,17728.00
2022-09-27T10:11:20.722Z,18496.00
2022-09-27T10:12:20.676Z,18880.00
2022-09-27T10:13:20.641Z,19008.00
2022-09-27T10:14:20.598Z,19200.00
2022-09-27T10:15:20.560Z,20064.00
2022-09-27T10:16:20.584Z,20320.00
2022-09-27T10:17:20.488Z,20704.00
2022-09-27T10:18:20.443Z,20064.00
2022-09-27T10:19:20.437Z,18240.00
2022-09-27T10:20:20.460Z,16424.00
2022-09-27T10:21:20.328Z,13976.00
2022-09-27T10:22:20.300Z,9212.00
2022-09-27T10:23:20.268Z,6348.00
2022-09-27T10:24:20.672Z,5912.00
2022-09-27T10:25:20.179Z,9872.00
2022-09-27T10:26:20.150Z,10164.00
2022-09-27T10:27:20.097Z,11436.00
2022-09-27T10:28:20.063Z,9536.00
2022-09-27T10:29:20.034Z,9180.00
2022-09-27T10:30:20.010Z,12048.00
2022-09-27T10:31:19.994Z,11820.00
2022-09-27T10:32:19.908Z,12964.00
2022-09-27T10:33:19.867Z,15032.00
2022-09-27T10:34:19.833Z,15856.00
2022-09-27T10:35:23.566Z,15940.00
2022-09-27T10:36:19.752Z,16192.00
2022-09-27T10:37:19.710Z,16160.00
2022-09-27T10:38:19.674Z,16304.00
2022-09-27T10:39:19.639Z,16816.00
2022-09-27T10:40:19.785Z,16240.00
2022-09-27T10:41:19.593Z,15256.00
2022-09-27T10:42:19.520Z,13780.00
2022-09-27T10:43:19.482Z,13376.00
2022-09-27T10:44:19.440Z,12556.00
2022-09-27T10:45:19.402Z,13776.00
2022-09-27T10:46:19.401Z,14800.00
2022-09-27T10:47:19.335Z,14632.00
2022-09-27T10:48:19.291Z,13648.00
2022-09-27T10:49:19.248Z,13464.00
2022-09-27T10:50:38.732Z,14644.00
2022-09-27T10:51:19.197Z,15276.00
2022-09-27T10:52:19.135Z,15124.00
2022-09-27T10:53:19.104Z,12268.00
2022-09-27T10:54:19.070Z,11996.00
2022-09-27T10:55:19.018Z,13860.00
2022-09-27T10:56:18.981Z,13356.00
2022-09-27T10:57:18.979Z,13924.00
2022-09-27T10:58:18.899Z,11236.00
2022-09-27T10:59:18.858Z,9532.00
2022-09-27T11:00:18.852Z,11784.00
2022-09-27T11:01:18.827Z,11308.00
2022-09-27T11:02:18.742Z,10984.00
2022-09-27T11:03:18.699Z,11904.00
2022-09-27T11:04:18.894Z,10536.00
2022-09-27T11:05:18.659Z,11976.00
2022-09-27T11:06:18.607Z,11620.00
2022-09-27T11:07:18.554Z,15332.00
2022-09-27T11:08:18.508Z,14180.00
2022-09-27T11:09:18.466Z,14024.00
2022-09-27T11:10:18.457Z,15160.00
2022-09-27T11:11:18.387Z,15856.00
2022-09-27T11:12:18.363Z,17048.00
2022-09-27T11:13:18.307Z,17952.00
2022-09-27T11:14:18.275Z,17984.00
2022-09-27T11:15:18.233Z,18240.00
2022-09-27T11:16:18.286Z,19168.00
2022-09-27T11:17:18.156Z,19264.00
2022-09-27T11:18:18.131Z,18688.00
2022-09-27T11:19:18.082Z,18624.00
2022-09-27T11:20:18.159Z,17984.00
2022-09-27T11:21:18.006Z,18432.00
2022-09-27T11:22:17.960Z,18784.00
2022-09-27T11:23:17.924Z,18560.00
2022-09-27T11:24:17.898Z,18336.00
2022-09-27T11:25:17.845Z,18944.00
2022-09-27T11:26:17.812Z,18816.00
2022-09-27T11:27:17.773Z,20448.00
2022-09-27T11:28:17.730Z,19520.00
2022-09-27T11:29:17.709Z,20736.00
2022-09-27T11:30:17.693Z,19872.00
2022-09-27T11:31:19.818Z,19520.00
2022-09-27T11:32:17.575Z,19712.00
2022-09-27T11:33:17.542Z,20512.00
2022-09-27T11:34:17.561Z,20096.00
2022-09-27T11:35:17.477Z,17312.00
2022-09-27T11:36:17.429Z,13256.00
2022-09-27T11:37:17.388Z,12484.00
2022-09-27T11:38:34.695Z,15788.00
2022-09-27T11:39:17.442Z,16576.00
2022-09-27T11:40:17.321Z,19040.00
2022-09-27T11:41:17.234Z,15096.00
2022-09-27T11:42:17.199Z,12540.00
2022-09-27T11:43:17.158Z,15232.00
2022-09-27T11:44:17.119Z,13288.00
2022-09-27T11:45:37.379Z,10476.00
2022-09-27T11:46:23.906Z,10372.00
2022-09-27T11:47:17.119Z,9572.00
2022-09-27T11:48:16.973Z,9736.00
2022-09-27T11:49:16.993Z,12328.00
2022-09-27T11:50:16.919Z,13640.00
2022-09-27T11:51:16.859Z,14304.00
2022-09-27T11:52:16.826Z,14696.00
2022-09-27T11:53:16.775Z,15164.00
2022-09-27T11:54:16.925Z,14812.00
2022-09-27T11:55:16.701Z,12392.00
2022-09-27T11:56:16.663Z,12972.00
2022-09-27T11:57:16.625Z,12836.00
2022-09-27T11:58:16.608Z,12964.00
2022-09-27T11:59:18.353Z,14816.00
2022-09-27T12:00:16.558Z,12628.00
2022-09-27T12:01:16.471Z,12224.00
2022-09-27T12:02:16.535Z,11744.00
2022-09-27T12:03:16.401Z,11708.00
2022-09-27T12:04:16.369Z,11688.00
2022-09-27T12:05:16.317Z,13664.00
2022-09-27T12:06:16.283Z,12580.00
2022-09-27T12:07:16.242Z,13568.00
2022-09-27T12:08:16.206Z,14088.00
2022-09-27T12:09:16.251Z,12872.00
2022-09-27T12:10:16.135Z,13820.00
2022-09-27T12:11:16.100Z,13796.00
2022-09-27T12:12:16.052Z,13268.00
2022-09-27T12:13:16.013Z,13552.00
2022-09-27T12:14:15.976Z,11064.00
2022-09-27T12:15:15.951Z,7828.00
2022-09-27T12:16:15.938Z,6432.00
2022-09-27T12:17:15.882Z,5732.00
2022-09-27T12:18:15.824Z,4688.00
2022-09-27T12:19:15.888Z,4756.00
2022-09-27T12:20:15.803Z,4352.00
2022-09-27T12:21:15.716Z,4864.00
2022-09-27T12:22:15.671Z,5108.00
2022-09-27T12:23:15.630Z,3780.00
2022-09-27T12:24:15.622Z,3000.00
2022-09-27T12:25:20.283Z,3800.00
2022-09-27T12:26:15.532Z,5608.00
2022-09-27T12:27:15.476Z,7976.00
2022-09-27T12:28:15.443Z,11048.00
2022-09-27T12:29:15.475Z,12884.00
2022-09-27T12:30:15.363Z,14136.00